Time;durP1;ratioP1;P1;durP2;ratioP2;P2;SDS_P1;SDS_P2;PMS_P1;PMS_P2;Temp;Humidity;BMP_temperature;BMP_pressure;BME280_temperature;BME280_humidity;BME280_pressure;Samples;Min_cycle;Max_cycle;Signal;HPM_P1;HPM_P2
2023/05/09 00:00:49;;;;;;;;;;;;;;;12.99;100.00;96116.66;5086794;28;20272;-76
2023/05/09 00:03:15;;;;;;;;;;;;;;;12.94;100.00;96110.91;5087797;28;19927;-76
2023/05/09 00:05:42;;;;;;;;;;;;;;;12.96;100.00;96109.88;5086095;28;19989;-76
2023/05/09 00:08:08;;;;;;;;;;;;;;;12.95;100.00;96112.59;5079260;28;19930;-76
2023/05/09 00:10:36;;;;;;;;;;;;;;;12.94;100.00;96108.31;5083305;28;19949;-76
2023/05/09 00:13:02;;;;;;;;;;;;;;;12.93;100.00;96104.03;5090274;28;19928;-76
2023/05/09 00:15:29;;;;;;;;;;;;;;;12.94;100.00;96108.31;5086474;28;19932;-76
2023/05/09 00:17:55;;;;;;;;;;;;;;;12.80;100.00;96099.66;5086073;28;20386;-76
2023/05/09 00:20:21;;;;;;;;;;;;;;;12.72;100.00;96095.91;5085758;28;19924;-76
2023/05/09 00:22:48;;;;;;;;;;;;;;;12.69;100.00;96098.72;5090105;28;19924;-76
2023/05/09 00:25:14;;;;;;;;;;;;;;;12.80;100.00;96093.66;5086644;28;19924;-76
2023/05/09 00:27:41;;;;;;;;;;;;;;;12.77;100.00;96097.28;5078020;28;19929;-76
2023/05/09 00:30:08;;;;;;;;;;;;;;;12.69;100.00;96094.34;5085369;28;19927;-76
2023/05/09 00:32:34;;;;;;;;;;;;;;;12.67;100.00;96093.59;5087938;28;20333;-76
2023/05/09 00:35:01;;;;;;;;;;;;;;;12.64;100.00;96100.78;5089647;28;19924;-76
2023/05/09 00:37:29;;;;;;;;;;;;;;;12.63;100.00;96093.91;5085986;28;20330;-76
2023/05/09 00:39:55;;;;;;;;;;;;;;;12.62;100.00;96100.06;5091556;28;19935;-76
2023/05/09 00:42:22;;;;;;;;;;;;;;;12.64;100.00;96096.41;5078685;28;19978;-76
2023/05/09 00:44:49;;;;;;;;;;;;;;;12.59;100.00;96101.91;5088464;28;20455;-76
2023/05/09 00:47:16;;;;;;;;;;;;;;;12.68;100.00;96094.44;5084460;28;20046;-76
2023/05/09 00:49:42;;;;;;;;;;;;;;;12.64;100.00;96091.22;5083799;28;19993;-76
2023/05/09 00:52:09;;;;;;;;;;;;;;;12.64;100.00;96087.78;5084941;28;19924;-76
2023/05/09 00:54:35;;;;;;;;;;;;;;;12.72;100.00;96085.50;5081534;28;19998;-76
2023/05/09 00:57:01;;;;;;;;;;;;;;;12.74;100.00;96084.47;5085632;28;20504;-76
2023/05/09 00:59:28;;;;;;;;;;;;;;;12.71;100.00;96083.84;5081298;28;19970;-76
2023/05/09 01:01:55;;;;;;;;;;;;;;;12.69;100.00;96072.75;5093065;28;19973;-76
2023/05/09 01:04:22;;;;;;;;;;;;;;;12.77;100.00;96076.47;5085754;28;20067;-76
2023/05/09 01:06:52;;;;;;;;;;;;;;;12.77;100.00;96071.28;5092981;28;19924;-76
2023/05/09 01:09:21;;;;;;;;;;;;;;;12.74;100.00;96068.88;5080126;28;19970;-76
2023/05/09 01:11:52;;;;;;;;;;;;;;;12.76;100.00;96071.41;5087660;28;19928;-76
2023/05/09 01:14:25;;;;;;;;;;;;;;;12.70;100.00;96064.81;5083446;28;19924;-76
2023/05/09 01:16:54;;;;;;;;;;;;;;;12.63;100.00;96067.94;5078703;28;20010;-76
2023/05/09 01:19:45;;;;;;;;;;;;;;;12.58;100.00;96063.06;5076164;28;19928;-77
2023/05/09 01:22:14;;;;;;;;;;;;;;;12.55;100.00;96063.25;5077402;28;20413;-76
2023/05/09 01:24:50;;;;;;;;;;;;;;;12.56;100.00;96060.53;5084643;28;19928;-76
2023/05/09 01:27:22;;;;;;;;;;;;;;;12.50;100.00;96060.97;5087341;28;19986;-76
2023/05/09 01:29:51;;;;;;;;;;;;;;;12.53;100.00;96047.78;5081299;28;19973;-76
2023/05/09 01:32:19;;;;;;;;;;;;;;;12.57;100.00;96045.81;5083101;28;19932;-76
2023/05/09 01:34:47;;;;;;;;;;;;;;;12.63;100.00;96049.75;5085013;28;19932;-77
2023/05/09 01:37:14;;;;;;;;;;;;;;;12.67;100.00;96046.84;5087299;28;19929;-76
2023/05/09 01:39:41;;;;;;;;;;;;;;;12.62;100.00;96043.72;5089754;28;19927;-76
2023/05/09 01:42:09;;;;;;;;;;;;;;;12.65;100.00;96045.28;5076466;28;19925;-76
2023/05/09 01:44:38;;;;;;;;;;;;;;;12.62;100.00;96045.50;5081641;28;20023;-76
2023/05/09 01:47:07;;;;;;;;;;;;;;;12.62;100.00;96048.91;5083113;28;19979;-76
2023/05/09 01:49:35;;;;;;;;;;;;;;;12.63;100.00;96049.75;5070555;28;20018;-76
2023/05/09 01:52:03;;;;;;;;;;;;;;;12.61;100.00;96049.84;5093056;28;19924;-76
2023/05/09 01:54:30;;;;;;;;;;;;;;;12.62;100.00;96046.31;5086514;28;19932;-76
2023/05/09 01:56:57;;;;;;;;;;;;;;;12.60;100.00;96048.16;5085263;28;19950;-76
2023/05/09 01:59:25;;;;;;;;;;;;;;;12.62;100.00;96046.31;5088090;28;20394;-76
2023/05/09 02:01:53;;;;;;;;;;;;;;;12.62;100.00;96041.13;5077662;28;20405;-76
2023/05/09 02:04:21;;;;;;;;;;;;;;;12.59;100.00;96036.94;5080006;28;19967;-76
2023/05/09 02:06:50;;;;;;;;;;;;;;;12.52;100.00;96040.06;5086095;28;19932;-76
2023/05/09 02:09:17;;;;;;;;;;;;;;;12.54;100.00;96035.59;5084818;28;19931;-76
2023/05/09 02:11:43;;;;;;;;;;;;;;;12.53;100.00;96033.91;5091720;28;19935;-76
2023/05/09 02:14:10;;;;;;;;;;;;;;;12.50;100.00;96047.97;5084853;28;19924;-75
2023/05/09 02:16:38;;;;;;;;;;;;;;;12.57;100.00;96044.03;5091621;28;19969;-76
2023/05/09 02:19:04;;;;;;;;;;;;;;;12.54;100.00;96038.22;5084920;28;19928;-75
2023/05/09 02:21:32;;;;;;;;;;;;;;;12.44;100.00;96037.97;5089445;28;20275;-76
2023/05/09 02:23:58;;;;;;;;;;;;;;;12.54;100.00;96035.59;5074463;28;19970;-76
2023/05/09 02:26:25;;;;;;;;;;;;;;;12.61;100.00;96023.88;5087630;28;20336;-76
2023/05/09 02:28:51;;;;;;;;;;;;;;;12.63;100.00;96022.00;5085225;28;19931;-76
2023/05/09 02:31:20;;;;;;;;;;;;;;;12.70;100.00;96023.25;5085987;28;19928;-76
2023/05/09 02:33:46;;;;;;;;;;;;;;;12.66;100.00;96019.19;5086165;28;19928;-76
2023/05/09 02:36:14;;;;;;;;;;;;;;;12.61;100.00;96021.28;5085637;28;20018;-76
2023/05/09 02:38:42;;;;;;;;;;;;;;;12.60;100.00;96022.19;5082564;28;19932;-76
2023/05/09 02:41:12;;;;;;;;;;;;;;;12.58;100.00;96014.50;5078837;28;19927;-75
2023/05/09 02:43:38;;;;;;;;;;;;;;;12.52;100.00;96025.31;5078811;28;20390;-76
2023/05/09 02:46:05;;;;;;;;;;;;;;;12.42;100.00;96023.41;5080447;28;20356;-76
2023/05/09 02:48:31;;;;;;;;;;;;;;;12.50;100.00;96016.78;5079048;28;20309;-76
2023/05/09 02:50:57;;;;;;;;;;;;;;;12.37;100.00;96015.94;5090477;28;19924;-76
2023/05/09 02:53:24;;;;;;;;;;;;;;;12.35;100.00;96015.22;5091118;28;19928;-76
2023/05/09 02:55:52;;;;;;;;;;;;;;;12.41;100.00;96016.56;5083407;28;19929;-76
2023/05/09 02:58:18;;;;;;;;;;;;;;;12.32;100.00;96016.25;5084604;28;20023;-76
2023/05/09 03:00:45;;;;;;;;;;;;;;;12.31;100.00;96011.97;5081706;28;19936;-76
2023/05/09 03:03:11;;;;;;;;;;;;;;;12.28;100.00;96007.00;5083509;28;20006;-75
2023/05/09 03:05:39;;;;;;;;;;;;;;;12.40;100.00;96007.94;5083839;28;22326;-76
2023/05/09 03:08:06;;;;;;;;;;;;;;;12.32;100.00;95997.22;5082420;28;20023;-76
2023/05/09 03:10:32;;;;;;;;;;;;;;;12.29;100.00;96006.03;5086608;28;19924;-76
2023/05/09 03:12:59;;;;;;;;;;;;;;;12.29;100.00;96003.44;5080681;28;19924;-75
2023/05/09 03:15:26;;;;;;;;;;;;;;;12.33;100.00;96006.69;5089224;28;19989;-76
2023/05/09 03:17:52;;;;;;;;;;;;;;;12.30;100.00;96001.69;5079129;28;19973;-76
2023/05/09 03:20:18;;;;;;;;;;;;;;;12.33;100.00;96007.50;5086678;28;19924;-76
2023/05/09 03:22:44;;;;;;;;;;;;;;;12.34;100.00;96003.97;5086751;28;20052;-76
2023/05/09 03:25:11;;;;;;;;;;;;;;;12.37;100.00;96002.13;5072288;28;19931;-76
2023/05/09 03:27:37;;;;;;;;;;;;;;;12.41;100.00;95988.81;5088567;28;19924;-76
2023/05/09 03:30:05;;;;;;;;;;;;;;;12.47;100.00;95993.63;5073506;28;19936;-76
2023/05/09 03:32:32;;;;;;;;;;;;;;;12.50;100.00;95985.63;5087608;28;19924;-77
2023/05/09 03:34:58;;;;;;;;;;;;;;;12.49;100.00;95993.50;5079958;28;19977;-76
2023/05/09 03:37:24;;;;;;;;;;;;;;;12.46;100.00;95985.91;5086663;28;19924;-76
2023/05/09 03:39:50;;;;;;;;;;;;;;;12.48;100.00;95978.84;5074369;28;19982;-76
2023/05/09 03:42:17;;;;;;;;;;;;;;;12.45;100.00;95977.28;5076488;28;19932;-76
2023/05/09 03:44:43;;;;;;;;;;;;;;;12.46;100.00;95980.72;5079718;28;20444;-76
2023/05/09 03:47:10;;;;;;;;;;;;;;;12.46;100.00;95978.97;5079415;28;20344;-76
2023/05/09 03:49:38;;;;;;;;;;;;;;;12.44;100.00;95969.59;5079488;28;19931;-76
2023/05/09 03:52:04;;;;;;;;;;;;;;;12.33;100.00;95978.94;5090846;28;20298;-76
2023/05/09 03:54:30;;;;;;;;;;;;;;;12.30;100.00;95980.91;5082748;28;20390;-76
2023/05/09 03:56:57;;;;;;;;;;;;;;;12.22;100.00;95983.19;5083501;28;19985;-76
2023/05/09 03:59:23;;;;;;;;;;;;;;;12.15;100.00;95981.91;5086958;28;19924;-76
2023/05/09 04:01:49;;;;;;;;;;;;;;;12.15;100.00;95979.31;5089468;28;20275;-76
2023/05/09 04:04:17;;;;;;;;;;;;;;;12.05;100.00;95974.75;5083734;28;19967;-76
2023/05/09 04:06:43;;;;;;;;;;;;;;;12.06;100.00;95973.81;5087854;28;20011;-76
2023/05/09 04:09:09;;;;;;;;;;;;;;;12.07;100.00;95972.03;5073941;28;19974;-76
2023/05/09 04:11:36;;;;;;;;;;;;;;;12.15;100.00;95971.53;5085451;28;20298;-76
2023/05/09 04:14:05;;;;;;;;;;;;;;;12.17;100.00;95970.50;5090582;28;19969;-77
2023/05/09 04:16:32;;;;;;;;;;;;;;;12.08;100.00;95971.09;5087921;28;19925;-76
2023/05/09 04:18:58;;;;;;;;;;;;;;;12.15;100.00;95966.34;5079365;28;19970;-75
2023/05/09 04:21:25;;;;;;;;;;;;;;;12.17;100.00;95967.91;5084680;28;19985;-76
2023/05/09 04:23:52;;;;;;;;;;;;;;;12.23;100.00;95972.69;5066484;28;19931;-76
2023/05/09 04:26:18;;;;;;;;;;;;;;;12.23;100.00;95966.66;5075617;28;19964;-76
2023/05/09 04:28:44;;;;;;;;;;;;;;;12.26;100.00;95974.25;5071557;28;19928;-76
2023/05/09 04:31:11;;;;;;;;;;;;;;;12.18;100.00;95974.75;5077611;28;19924;-77
2023/05/09 04:33:38;;;;;;;;;;;;;;;12.12;100.00;95969.97;5085478;28;19924;-76
2023/05/09 04:36:05;;;;;;;;;;;;;;;12.10;100.00;95971.84;5071323;28;19928;-76
2023/05/09 04:38:32;;;;;;;;;;;;;;;12.14;100.00;95977.66;5080236;28;19981;-76
2023/05/09 04:40:58;;;;;;;;;;;;;;;12.10;100.00;95977.03;5079898;28;19973;-76
2023/05/09 04:43:26;;;;;;;;;;;;;;;12.00;100.00;95981.16;5082930;28;20459;-76
2023/05/09 04:45:53;;;;;;;;;;;;;;;11.98;100.00;95983.03;5085522;28;19924;-76
2023/05/09 04:48:19;;;;;;;;;;;;;;;11.96;100.00;95979.69;5079806;28;19964;-76
2023/05/09 04:50:47;;;;;;;;;;;;;;;12.04;100.00;95977.44;5082095;28;19928;-76
2023/05/09 04:53:13;;;;;;;;;;;;;;;12.07;100.00;95979.81;5093560;28;19931;-76
2023/05/09 04:55:41;;;;;;;;;;;;;;;12.14;100.00;95975.91;5090206;28;19985;-76
2023/05/09 04:58:08;;;;;;;;;;;;;;;12.23;100.00;95971.84;5087418;28;19970;-76
2023/05/09 05:00:35;;;;;;;;;;;;;;;12.18;100.00;95968.75;5085851;28;20066;-76
2023/05/09 05:03:01;;;;;;;;;;;;;;;12.11;100.00;95976.09;5084014;28;19925;-76
2023/05/09 05:05:28;;;;;;;;;;;;;;;12.20;100.00;95970.31;5084156;28;19924;-76
2023/05/09 05:07:54;;;;;;;;;;;;;;;12.17;100.00;95962.72;5084797;28;19932;-76
2023/05/09 05:10:20;;;;;;;;;;;;;;;12.19;100.00;95965.19;5082514;28;19928;-76
2023/05/09 05:12:48;;;;;;;;;;;;;;;12.21;100.00;95965.94;5084267;28;19927;-76
2023/05/09 05:15:14;;;;;;;;;;;;;;;12.23;100.00;95966.66;5091242;28;20338;-75
2023/05/09 05:17:41;;;;;;;;;;;;;;;12.25;100.00;95968.22;5084287;28;19947;-76
2023/05/09 05:20:09;;;;;;;;;;;;;;;12.28;100.00;95965.44;5090442;28;19969;-76
2023/05/09 05:22:35;;;;;;;;;;;;;;;12.35;100.00;95953.72;5087875;28;19935;-76
2023/05/09 05:25:03;;;;;;;;;;;;;;;12.30;100.00;95954.94;5077560;28;20026;-76
2023/05/09 05:27:29;;;;;;;;;;;;;;;12.25;100.00;95960.44;5090705;28;19928;-76
2023/05/09 05:29:57;;;;;;;;;;;;;;;12.20;100.00;95965.13;5085239;28;19954;-76
2023/05/09 05:32:23;;;;;;;;;;;;;;;12.25;100.00;95965.63;5084080;28;20005;-76
2023/05/09 05:34:49;;;;;;;;;;;;;;;12.39;100.00;95954.34;5084171;28;19928;-74
2023/05/09 05:37:15;;;;;;;;;;;;;;;12.46;100.00;95947.78;5094071;28;20032;-76
2023/05/09 05:39:42;;;;;;;;;;;;;;;12.50;100.00;95946.66;5080523;28;19935;-76
2023/05/09 05:42:08;;;;;;;;;;;;;;;12.47;100.00;95957.25;5082080;28;19974;-76
2023/05/09 05:44:34;;;;;;;;;;;;;;;12.43;100.00;95952.38;5085636;28;19950;-76
2023/05/09 05:47:02;;;;;;;;;;;;;;;12.42;100.00;95954.13;5084853;28;19927;-76
2023/05/09 05:49:28;;;;;;;;;;;;;;;12.49;100.00;95947.56;5083478;28;19978;-76
2023/05/09 05:51:54;;;;;;;;;;;;;;;12.59;100.00;95952.97;5081248;28;19932;-77
2023/05/09 05:54:21;;;;;;;;;;;;;;;12.55;100.00;95959.31;5087785;28;19928;-78
2023/05/09 05:56:47;;;;;;;;;;;;;;;12.52;100.00;95951.72;5082029;28;19935;-77
2023/05/09 05:59:13;;;;;;;;;;;;;;;12.52;100.00;95951.72;5083857;28;19931;-78
2023/05/09 06:01:40;;;;;;;;;;;;;;;12.45;100.00;95945.28;5091874;28;19924;-79
2023/05/09 06:04:07;;;;;;;;;;;;;;;12.45;100.00;95945.28;5088288;28;20418;-78
2023/05/09 06:06:33;;;;;;;;;;;;;;;12.43;100.00;95939.38;5082190;28;19933;-78
2023/05/09 06:09:00;;;;;;;;;;;;;;;12.55;100.00;95941.97;5086136;28;19928;-77
2023/05/09 06:11:26;;;;;;;;;;;;;;;12.46;100.00;95941.75;5090800;28;19977;-78
2023/05/09 06:13:52;;;;;;;;;;;;;;;12.38;100.00;95931.03;5087480;28;19928;-76
2023/05/09 06:16:19;;;;;;;;;;;;;;;12.33;100.00;95921.81;5090789;28;20348;-77
2023/05/09 06:18:46;;;;;;;;;;;;;;;12.43;100.00;95924.63;5086145;28;20456;-78
2023/05/09 06:21:13;;;;;;;;;;;;;;;12.61;100.00;95927.75;5084043;28;19928;-78
2023/05/09 06:23:40;;;;;;;;;;;;;;;12.78;100.00;95934.38;5087002;28;19928;-76
2023/05/09 06:26:06;;;;;;;;;;;;;;;12.82;100.00;95930.63;5080452;28;19925;-77
2023/05/09 06:28:32;;;;;;;;;;;;;;;12.90;100.00;95930.06;5088228;28;19970;-78
2023/05/09 06:30:59;;;;;;;;;;;;;;;13.07;100.00;95930.56;5079929;28;19924;-78
2023/05/09 06:33:25;;;;;;;;;;;;;;;13.05;100.00;95923.81;5091328;28;19928;-78
2023/05/09 06:35:52;;;;;;;;;;;;;;;13.07;100.00;95920.16;5075409;28;20263;-78
2023/05/09 06:38:19;;;;;;;;;;;;;;;13.23;100.00;95926.88;5085010;28;19931;-78
2023/05/09 06:40:46;;;;;;;;;;;;;;;13.25;100.00;95925.88;5087323;28;19932;-78
2023/05/09 06:43:12;;;;;;;;;;;;;;;13.18;100.00;95916.00;5087232;28;19974;-78
2023/05/09 06:45:38;;;;;;;;;;;;;;;13.17;100.00;95919.53;5088615;28;20393;-79
2023/05/09 06:48:05;;;;;;;;;;;;;;;13.16;100.00;95908.28;5092132;28;19924;-79
2023/05/09 06:50:31;;;;;;;;;;;;;;;13.15;100.00;95906.63;5086854;28;19970;-78
2023/05/09 06:52:57;;;;;;;;;;;;;;;13.32;100.00;95908.91;5094424;28;19935;-77
2023/05/09 06:55:25;;;;;;;;;;;;;;;14.05;100.00;95899.25;5080832;28;20313;-77
2023/05/09 06:57:51;;;;;;;;;;;;;;;14.22;100.00;95904.03;5082926;28;19924;-78
2023/05/09 07:00:18;;;;;;;;;;;;;;;14.31;100.00;95894.69;5087376;28;19924;-79
2023/05/09 07:02:44;;;;;;;;;;;;;;;14.49;100.00;95893.31;5086337;28;19978;-78
2023/05/09 07:05:10;;;;;;;;;;;;;;;14.61;100.00;95899.41;5083195;28;19978;-79
2023/05/09 07:07:36;;;;;;;;;;;;;;;14.77;100.00;95891.22;5088075;28;19925;-78
2023/05/09 07:10:04;;;;;;;;;;;;;;;14.63;100.00;95897.47;5084778;28;19924;-78
2023/05/09 07:12:32;;;;;;;;;;;;;;;14.89;100.00;95886.81;5086494;28;19929;-77
2023/05/09 07:14:58;;;;;;;;;;;;;;;14.86;100.00;95887.88;5087573;28;19924;-77
2023/05/09 07:17:24;;;;;;;;;;;;;;;14.94;100.00;95884.66;5086418;28;19924;-77
2023/05/09 07:19:51;;;;;;;;;;;;;;;15.25;100.00;95865.66;5081865;28;19928;-78
2023/05/09 07:22:17;;;;;;;;;;;;;;;15.14;100.00;95865.69;5076701;28;19932;-77
2023/05/09 07:24:45;;;;;;;;;;;;;;;14.93;100.00;95864.75;5091184;28;19969;-78
2023/05/09 07:27:11;;;;;;;;;;;;;;;15.15;100.00;95859.50;5079678;28;19931;-78
2023/05/09 07:29:39;;;;;;;;;;;;;;;15.44;100.00;95857.19;5091185;28;19924;-79
2023/05/09 07:32:05;;;;;;;;;;;;;;;15.43;100.00;95857.31;5086014;28;20394;-77
2023/05/09 07:34:31;;;;;;;;;;;;;;;15.55;100.00;95856.31;5086648;28;19931;-79
2023/05/09 07:36:58;;;;;;;;;;;;;;;15.55;100.00;95848.47;5081234;28;19924;-77
2023/05/09 07:39:24;;;;;;;;;;;;;;;15.46;100.00;95846.59;5089970;28;19928;-78
2023/05/09 07:41:50;;;;;;;;;;;;;;;15.42;100.00;95847.81;5079476;28;19928;-78
2023/05/09 07:44:17;;;;;;;;;;;;;;;15.13;100.00;95847.53;5089260;28;20592;-78
2023/05/09 07:46:44;;;;;;;;;;;;;;;15.07;100.00;95848.03;5080446;28;20304;-77
2023/05/09 07:49:10;;;;;;;;;;;;;;;14.85;100.00;95844.50;5080086;28;19932;-78
2023/05/09 07:51:37;;;;;;;;;;;;;;;14.90;100.00;95846.75;5076576;28;19951;-79
2023/05/09 07:54:03;;;;;;;;;;;;;;;15.11;100.00;95842.44;5088423;28;19925;-78
2023/05/09 07:56:29;;;;;;;;;;;;;;;15.10;100.00;95834.75;5088433;28;19924;-78
2023/05/09 07:58:55;;;;;;;;;;;;;;;14.99;100.00;95838.22;5086420;28;19932;-77
2023/05/09 08:01:22;;;;;;;;;;;;;;;15.03;100.00;95842.22;5087434;28;19924;-77
2023/05/09 08:03:49;;;;;;;;;;;;;;;15.08;100.00;95824.44;5090863;28;20379;-79
2023/05/09 08:06:16;;;;;;;;;;;;;;;14.97;100.00;95816.63;5083084;28;19929;-77
2023/05/09 08:08:42;;;;;;;;;;;;;;;14.99;100.00;95814.75;5081267;28;19978;-77
2023/05/09 08:11:08;;;;;;;;;;;;;;;15.29;100.00;95814.06;5083922;28;20735;-79
2023/05/09 08:13:34;;;;;;;;;;;;;;;15.60;100.00;95806.34;5086955;28;19930;-78
2023/05/09 08:16:01;;;;;;;;;;;;;;;15.71;100.00;95804.53;5081496;28;19978;-78
2023/05/09 08:18:27;;;;;;;;;;;;;;;15.59;100.00;95804.69;5076110;28;19928;-77
2023/05/09 08:20:55;;;;;;;;;;;;;;;15.69;100.00;95801.22;5085544;28;19928;-79
2023/05/09 08:23:21;;;;;;;;;;;;;;;15.59;100.00;95800.28;5077645;28;20344;-78
2023/05/09 08:25:47;;;;;;;;;;;;;;;15.54;100.00;95804.25;5089019;28;19932;-78
2023/05/09 08:28:14;;;;;;;;;;;;;;;15.42;100.00;95801.66;5087611;28;19925;-77
2023/05/09 08:30:40;;;;;;;;;;;;;;;15.36;100.00;95796.13;5092179;28;19935;-77
2023/05/09 08:33:07;;;;;;;;;;;;;;;15.30;100.00;95797.44;5092469;28;19928;-77
2023/05/09 08:35:33;;;;;;;;;;;;;;;15.44;100.00;95783.28;5092554;28;20386;-78
2023/05/09 08:38:00;;;;;;;;;;;;;;;15.63;100.00;95788.63;5093126;28;20313;-78
2023/05/09 08:40:27;;;;;;;;;;;;;;;15.70;100.00;95796.81;5088000;28;19928;-77
2023/05/09 08:42:53;;;;;;;;;;;;;;;15.85;100.00;95798.16;5085236;28;19978;-77
2023/05/09 08:45:22;;;;;;;;;;;;;;;16.06;100.00;95790.31;5082457;28;20428;-78
2023/05/09 08:47:49;;;;;;;;;;;;;;;16.27;100.00;95786.81;5084818;28;19924;-78
2023/05/09 08:50:16;;;;;;;;;;;;;;;16.61;100.00;95784.75;5081065;28;20316;-77
2023/05/09 08:52:42;;;;;;;;;;;;;;;16.77;100.00;95779.06;5081994;28;20414;-78
2023/05/09 08:55:11;;;;;;;;;;;;;;;17.09;100.00;95771.84;5074748;28;19958;-79
2023/05/09 08:57:37;;;;;;;;;;;;;;;17.39;100.00;95764.78;5094737;28;19980;-78
2023/05/09 09:00:05;;;;;;;;;;;;;;;17.55;100.00;95772.13;5087305;28;19931;-79
2023/05/09 09:02:32;;;;;;;;;;;;;;;17.68;100.00;95777.88;5087323;28;19931;-78
2023/05/09 09:04:58;;;;;;;;;;;;;;;17.54;100.00;95773.06;5090862;28;19924;-77
2023/05/09 09:07:25;;;;;;;;;;;;;;;17.64;100.00;95776.50;5087499;28;19927;-79
2023/05/09 09:09:51;;;;;;;;;;;;;;;17.35;100.00;95766.03;5087426;28;19931;-76
2023/05/09 09:12:21;;;;;;;;;;;;;;;17.49;100.00;95759.56;5088294;28;19924;-79
2023/05/09 09:14:48;;;;;;;;;;;;;;;17.24;100.00;95768.78;5096554;28;19927;-77
2023/05/09 09:17:16;;;;;;;;;;;;;;;17.01;100.00;95757.75;5091481;28;19977;-78
2023/05/09 09:19:44;;;;;;;;;;;;;;;17.00;100.00;95754.31;5091535;28;19928;-79
2023/05/09 09:22:13;;;;;;;;;;;;;;;17.06;100.00;95751.16;5093720;28;19932;-79
2023/05/09 09:24:39;;;;;;;;;;;;;;;17.17;100.00;95751.03;5082258;28;19924;-78
2023/05/09 09:27:06;;;;;;;;;;;;;;;17.20;100.00;95747.28;5085523;28;19925;-79
2023/05/09 09:29:34;;;;;;;;;;;;;;;17.17;100.00;95740.56;5086965;28;19928;-80
2023/05/09 09:32:02;;;;;;;;;;;;;;;17.15;100.00;95736.44;5087250;28;19928;-79
2023/05/09 09:34:28;;;;;;;;;;;;;;;17.22;100.00;95732.28;5090377;28;19931;-77
2023/05/09 09:36:55;;;;;;;;;;;;;;;17.44;100.00;95736.41;5085907;28;19954;-77
2023/05/09 09:39:21;;;;;;;;;;;;;;;17.14;100.00;95727.75;5084677;28;19924;-77
2023/05/09 09:41:48;;;;;;;;;;;;;;;17.20;100.00;95731.59;5079055;28;19924;-77
2023/05/09 09:44:15;;;;;;;;;;;;;;;17.32;100.00;95727.06;5086821;28;20536;-77
2023/05/09 09:46:44;;;;;;;;;;;;;;;17.79;100.00;95725.34;5084201;28;19931;-77
2023/05/09 09:49:11;;;;;;;;;;;;;;;17.85;100.00;95718.75;5082329;28;19924;-76
2023/05/09 09:51:37;;;;;;;;;;;;;;;18.12;100.00;95723.19;5085001;28;19982;-77
2023/05/09 09:54:06;;;;;;;;;;;;;;;18.21;100.00;95717.09;5090071;28;20371;-76
2023/05/09 09:56:39;;;;;;;;;;;;;;;18.47;100.00;95712.00;5092411;28;19970;-77
2023/05/09 09:59:10;;;;;;;;;;;;;;;18.60;100.00;95704.59;5086797;28;20007;-77
2023/05/09 10:01:36;;;;;;;;;;;;;;;18.81;100.00;95707.00;5085801;28;19924;-77
2023/05/09 10:04:04;;;;;;;;;;;;;;;19.02;100.00;95696.22;5087785;28;20283;-77
2023/05/09 10:06:30;;;;;;;;;;;;;;;18.96;100.00;95686.31;5081594;28;19932;-78
2023/05/09 10:08:56;;;;;;;;;;;;;;;18.95;100.00;95689.06;5082733;28;20445;-78
2023/05/09 10:11:23;;;;;;;;;;;;;;;18.78;100.00;95682.84;5089726;28;20263;-77
2023/05/09 10:13:49;;;;;;;;;;;;;;;18.94;100.00;95685.63;5086468;28;19924;-76
2023/05/09 10:16:15;;;;;;;;;;;;;;;19.18;100.00;95685.03;5087871;28;19924;-77
2023/05/09 10:18:42;;;;;;;;;;;;;;;19.14;100.00;95680.25;5088621;28;20331;-77
2023/05/09 10:21:11;;;;;;;;;;;;;;;19.26;100.00;95677.22;5086506;28;19932;-77
2023/05/09 10:23:38;;;;;;;;;;;;;;;19.34;100.00;95669.41;5082585;28;19928;-77
2023/05/09 10:26:11;;;;;;;;;;;;;;;19.18;100.00;95665.84;5082292;28;19969;-77
2023/05/09 10:28:38;;;;;;;;;;;;;;;19.51;100.00;95661.66;5077333;28;19986;-78
2023/05/09 10:31:07;;;;;;;;;;;;;;;19.64;100.00;95661.25;5079317;28;19928;-77
2023/05/09 10:33:37;;;;;;;;;;;;;;;19.36;100.00;95658.75;5084986;28;19977;-77
2023/05/09 10:36:04;;;;;;;;;;;;;;;19.06;100.00;95663.44;5086454;28;19924;-77
2023/05/09 10:38:32;;;;;;;;;;;;;;;19.14;100.00;95648.75;5085993;28;19924;-77
2023/05/09 10:40:59;;;;;;;;;;;;;;;19.06;100.00;95641.63;5081146;28;19945;-76
2023/05/09 10:43:26;;;;;;;;;;;;;;;19.02;100.00;95641.09;5084880;28;19928;-77
2023/05/09 10:45:52;;;;;;;;;;;;;;;19.08;100.00;95631.78;5070782;28;20043;-77
2023/05/09 10:48:18;;;;;;;;;;;;;;;18.90;100.00;95633.59;5084116;28;19939;-76
2023/05/09 10:50:45;;;;;;;;;;;;;;;18.74;100.00;95627.22;5080308;28;19935;-76
2023/05/09 10:53:13;;;;;;;;;;;;;;;18.55;100.00;95625.56;5086026;28;19969;-77
2023/05/09 10:55:49;;;;;;;;;;;;;;;18.72;100.00;95623.09;5082602;28;19925;-77
2023/05/09 10:58:19;;;;;;;;;;;;;;;18.74;100.00;95615.91;5090475;28;19975;-77
2023/05/09 11:00:46;;;;;;;;;;;;;;;18.96;100.00;95604.97;5086082;28;20453;-78
2023/05/09 11:03:12;;;;;;;;;;;;;;;18.99;100.00;95606.47;5092222;28;19928;-77
2023/05/09 11:05:39;;;;;;;;;;;;;;;18.99;100.00;95604.66;5085398;28;19924;-76
2023/05/09 11:08:19;;;;;;;;;;;;;;;18.96;100.00;95593.63;5077243;28;19925;-76
2023/05/09 11:10:47;;;;;;;;;;;;;;;19.01;100.00;95594.81;5081209;28;20407;-76
2023/05/09 11:13:13;;;;;;;;;;;;;;;18.88;100.00;95591.78;5083332;28;20398;-77
2023/05/09 11:15:49;;;;;;;;;;;;;;;18.88;100.00;95593.59;5089999;28;19932;-76
2023/05/09 11:18:16;;;;;;;;;;;;;;;18.91;100.00;95586.22;5083845;28;19970;-77
2023/05/09 11:20:43;;;;;;;;;;;;;;;18.97;100.00;95588.22;5080727;28;20383;-77
2023/05/09 11:23:10;;;;;;;;;;;;;;;19.23;100.00;95587.44;5079844;28;19973;-78
2023/05/09 11:25:38;;;;;;;;;;;;;;;19.13;100.00;95586.69;5082322;28;20015;-77
2023/05/09 11:28:06;;;;;;;;;;;;;;;18.89;100.00;95580.28;5070565;28;19967;-77
2023/05/09 11:30:36;;;;;;;;;;;;;;;19.01;100.00;95580.88;5080011;28;19969;-76
2023/05/09 11:33:05;;;;;;;;;;;;;;;18.93;100.00;95580.81;5078151;28;19974;-78
2023/05/09 11:35:32;;;;;;;;;;;;;;;18.93;100.00;95578.19;5073714;28;19924;-77
2023/05/09 11:37:59;;;;;;;;;;;;;;;18.67;100.00;95567.63;5080006;28;19929;-77
2023/05/09 11:40:26;;;;;;;;;;;;;;;18.61;100.00;95559.38;5079733;28;19932;-75
2023/05/09 11:42:54;;;;;;;;;;;;;;;18.80;100.00;95557.56;5084346;28;19977;-76
2023/05/09 11:45:22;;;;;;;;;;;;;;;19.17;100.00;95548.66;5084161;28;19928;-76
2023/05/09 11:47:48;;;;;;;;;;;;;;;19.13;100.00;95547.31;5081638;28;19928;-75
2023/05/09 11:50:15;;;;;;;;;;;;;;;19.27;100.00;95536.25;5086446;28;19931;-77
2023/05/09 11:52:42;;;;;;;;;;;;;;;19.25;100.00;95538.22;5078489;28;19924;-76
2023/05/09 11:55:09;;;;;;;;;;;;;;;19.28;100.00;95530.00;5082806;28;20511;-76
2023/05/09 11:57:39;;;;;;;;;;;;;;;19.31;100.00;95529.72;5080581;28;19977;-76
2023/05/09 12:00:08;;;;;;;;;;;;;;;19.12;100.00;95520.25;5084305;28;19973;-75
2023/05/09 12:02:35;;;;;;;;;;;;;;;19.22;100.00;95520.97;5086434;28;19924;-75
2023/05/09 12:05:09;;;;;;;;;;;;;;;19.21;100.00;95510.66;5085359;28;19931;-75
2023/05/09 12:07:35;;;;;;;;;;;;;;;19.16;100.00;95505.00;5083511;28;20374;-75
2023/05/09 12:10:03;;;;;;;;;;;;;;;19.27;100.00;95499.50;5087979;28;20320;-75
2023/05/09 12:12:29;;;;;;;;;;;;;;;19.25;100.00;95497.03;5083668;28;19925;-75
2023/05/09 12:14:56;;;;;;;;;;;;;;;19.05;100.00;95487.72;5082607;28;19971;-75
2023/05/09 12:17:22;;;;;;;;;;;;;;;18.93;100.00;95499.47;5089077;28;19977;-77
2023/05/09 12:19:51;;;;;;;;;;;;;;;19.13;100.00;95484.31;5085517;28;19973;-77
2023/05/09 12:22:18;;;;;;;;;;;;;;;19.08;100.00;95493.50;5082642;28;19929;-77
2023/05/09 12:24:45;;;;;;;;;;;;;;;19.19;100.00;95481.09;5084134;28;20475;-77
2023/05/09 12:27:11;;;;;;;;;;;;;;;19.18;100.00;95477.63;5082503;28;19932;-77
2023/05/09 12:29:39;;;;;;;;;;;;;;;19.17;100.00;95475.16;5090938;28;20279;-77
2023/05/09 12:32:05;;;;;;;;;;;;;;;19.29;100.00;95479.16;5088725;28;19928;-77
2023/05/09 12:34:32;;;;;;;;;;;;;;;19.30;100.00;95465.88;5090938;28;19931;-76